sensor_id;sensor_type;location;lat;lon;timestamp;P1;durP1;ratioP1;P2;durP2;ratioP2
434;SDS011;204;48.942;9.256;2022-11-04T00:01:32;1.42;;;0.90;;
434;SDS011;204;48.942;9.256;2022-11-04T00:03:59;4.13;;;1.17;;
434;SDS011;204;48.942;9.256;2022-11-04T00:06:24;1.30;;;1.03;;
434;SDS011;204;48.942;9.256;2022-11-04T00:08:51;1.97;;;1.10;;
434;SDS011;204;48.942;9.256;2022-11-04T00:11:18;1.10;;;1.08;;
434;SDS011;204;48.942;9.256;2022-11-04T00:14:03;3.53;;;1.15;;
434;SDS011;204;48.942;9.256;2022-11-04T00:16:29;1.40;;;1.33;;
434;SDS011;204;48.942;9.256;2022-11-04T00:19:13;2.25;;;2.05;;
434;SDS011;204;48.942;9.256;2022-11-04T00:21:39;2.30;;;1.37;;
434;SDS011;204;48.942;9.256;2022-11-04T00:24:23;1.42;;;1.33;;
434;SDS011;204;48.942;9.256;2022-11-04T00:27:14;1.00;;;0.98;;
434;SDS011;204;48.942;9.256;2022-11-04T00:30:00;1.55;;;0.90;;
434;SDS011;204;48.942;9.256;2022-11-04T00:32:26;1.40;;;1.30;;
434;SDS011;204;48.942;9.256;2022-11-04T00:35:11;2.20;;;1.27;;
434;SDS011;204;48.942;9.256;2022-11-04T00:37:38;1.90;;;1.27;;
434;SDS011;204;48.942;9.256;2022-11-04T00:40:05;1.30;;;1.25;;
434;SDS011;204;48.942;9.256;2022-11-04T00:42:32;3.72;;;1.65;;
434;SDS011;204;48.942;9.256;2022-11-04T00:44:58;1.50;;;1.17;;
434;SDS011;204;48.942;9.256;2022-11-04T00:47:24;1.67;;;1.20;;
434;SDS011;204;48.942;9.256;2022-11-04T00:49:49;1.20;;;1.10;;
434;SDS011;204;48.942;9.256;2022-11-04T00:52:15;2.00;;;1.43;;
434;SDS011;204;48.942;9.256;2022-11-04T00:54:40;2.80;;;1.37;;
434;SDS011;204;48.942;9.256;2022-11-04T00:57:09;1.73;;;1.57;;
434;SDS011;204;48.942;9.256;2022-11-04T00:59:36;1.38;;;1.30;;
434;SDS011;204;48.942;9.256;2022-11-04T01:02:01;3.80;;;1.60;;
434;SDS011;204;48.942;9.256;2022-11-04T01:04:27;4.23;;;1.40;;
434;SDS011;204;48.942;9.256;2022-11-04T01:06:53;1.27;;;1.20;;
434;SDS011;204;48.942;9.256;2022-11-04T01:09:19;3.60;;;1.57;;
434;SDS011;204;48.942;9.256;2022-11-04T01:11:44;1.20;;;1.20;;
434;SDS011;204;48.942;9.256;2022-11-04T01:14:10;1.90;;;1.40;;
434;SDS011;204;48.942;9.256;2022-11-04T01:16:36;1.07;;;1.03;;
434;SDS011;204;48.942;9.256;2022-11-04T01:19:02;2.37;;;1.00;;
434;SDS011;204;48.942;9.256;2022-11-04T01:21:27;1.57;;;0.90;;
434;SDS011;204;48.942;9.256;2022-11-04T01:23:53;2.10;;;1.10;;
434;SDS011;204;48.942;9.256;2022-11-04T01:26:20;1.57;;;1.00;;
434;SDS011;204;48.942;9.256;2022-11-04T01:28:46;1.02;;;0.77;;
434;SDS011;204;48.942;9.256;2022-11-04T01:31:16;0.77;;;0.70;;
434;SDS011;204;48.942;9.256;2022-11-04T01:33:47;0.88;;;0.80;;
434;SDS011;204;48.942;9.256;2022-11-04T01:36:14;1.02;;;0.95;;
434;SDS011;204;48.942;9.256;2022-11-04T01:38:39;1.10;;;1.00;;
434;SDS011;204;48.942;9.256;2022-11-04T01:41:05;1.00;;;0.90;;
434;SDS011;204;48.942;9.256;2022-11-04T01:46:20;1.95;;;0.82;;
434;SDS011;204;48.942;9.256;2022-11-04T01:51:40;0.90;;;0.77;;
434;SDS011;204;48.942;9.256;2022-11-04T01:54:07;0.82;;;0.60;;
434;SDS011;204;48.942;9.256;2022-11-04T01:56:35;0.90;;;0.52;;
434;SDS011;204;48.942;9.256;2022-11-04T01:59:03;0.60;;;0.55;;
434;SDS011;204;48.942;9.256;2022-11-04T02:01:33;0.98;;;0.82;;
434;SDS011;204;48.942;9.256;2022-11-04T02:03:59;0.60;;;0.60;;
434;SDS011;204;48.942;9.256;2022-11-04T02:06:48;0.90;;;0.80;;
434;SDS011;204;48.942;9.256;2022-11-04T02:09:16;2.25;;;0.80;;
434;SDS011;204;48.942;9.256;2022-11-04T02:11:43;0.85;;;0.80;;
434;SDS011;204;48.942;9.256;2022-11-04T02:14:27;1.27;;;1.25;;
434;SDS011;204;48.942;9.256;2022-11-04T02:16:54;0.77;;;0.73;;
434;SDS011;204;48.942;9.256;2022-11-04T02:28:29;0.75;;;0.65;;
434;SDS011;204;48.942;9.256;2022-11-04T02:31:09;1.92;;;0.80;;
434;SDS011;204;48.942;9.256;2022-11-04T02:33:48;0.80;;;0.57;;
434;SDS011;204;48.942;9.256;2022-11-04T02:36:32;0.70;;;0.70;;
434;SDS011;204;48.942;9.256;2022-11-04T02:39:28;2.63;;;1.00;;
434;SDS011;204;48.942;9.256;2022-11-04T02:45:03;1.15;;;0.88;;
434;SDS011;204;48.942;9.256;2022-11-04T02:47:48;1.15;;;0.70;;
434;SDS011;204;48.942;9.256;2022-11-04T02:50:52;0.70;;;0.70;;
434;SDS011;204;48.942;9.256;2022-11-04T02:53:21;1.20;;;1.00;;
434;SDS011;204;48.942;9.256;2022-11-04T02:55:53;2.53;;;1.20;;
434;SDS011;204;48.942;9.256;2022-11-04T02:58:25;2.80;;;1.20;;
434;SDS011;204;48.942;9.256;2022-11-04T03:00:58;2.15;;;0.80;;
434;SDS011;204;48.942;9.256;2022-11-04T03:03:37;1.20;;;0.75;;
434;SDS011;204;48.942;9.256;2022-11-04T03:06:05;1.27;;;1.17;;
434;SDS011;204;48.942;9.256;2022-11-04T03:08:37;2.45;;;0.88;;
434;SDS011;204;48.942;9.256;2022-11-04T03:11:10;2.60;;;0.95;;
434;SDS011;204;48.942;9.256;2022-11-04T03:13:40;1.65;;;0.80;;
434;SDS011;204;48.942;9.256;2022-11-04T03:17:05;1.20;;;1.10;;
434;SDS011;204;48.942;9.256;2022-11-04T03:21:40;1.27;;;0.83;;
434;SDS011;204;48.942;9.256;2022-11-04T03:24:14;0.80;;;0.70;;
434;SDS011;204;48.942;9.256;2022-11-04T03:26:48;1.13;;;0.73;;
434;SDS011;204;48.942;9.256;2022-11-04T03:32:03;1.85;;;0.82;;
434;SDS011;204;48.942;9.256;2022-11-04T03:34:36;1.35;;;0.95;;
434;SDS011;204;48.942;9.256;2022-11-04T03:37:02;1.67;;;1.47;;
434;SDS011;204;48.942;9.256;2022-11-04T03:39:28;1.73;;;0.90;;
434;SDS011;204;48.942;9.256;2022-11-04T03:41:55;1.30;;;0.80;;
434;SDS011;204;48.942;9.256;2022-11-04T03:44:22;1.00;;;0.90;;
434;SDS011;204;48.942;9.256;2022-11-04T03:46:50;2.33;;;0.75;;
434;SDS011;204;48.942;9.256;2022-11-04T03:49:17;2.08;;;0.85;;
434;SDS011;204;48.942;9.256;2022-11-04T03:51:44;3.75;;;0.93;;
434;SDS011;204;48.942;9.256;2022-11-04T03:54:09;2.43;;;1.13;;
434;SDS011;204;48.942;9.256;2022-11-04T04:02:29;6.10;;;1.20;;
434;SDS011;204;48.942;9.256;2022-11-04T04:04:59;2.33;;;0.95;;
434;SDS011;204;48.942;9.256;2022-11-04T04:07:32;2.13;;;1.55;;
434;SDS011;204;48.942;9.256;2022-11-04T04:10:11;1.73;;;1.27;;
434;SDS011;204;48.942;9.256;2022-11-04T04:13:18;1.50;;;0.85;;
434;SDS011;204;48.942;9.256;2022-11-04T04:15:58;1.95;;;0.85;;
434;SDS011;204;48.942;9.256;2022-11-04T04:18:29;3.30;;;1.20;;
434;SDS011;204;48.942;9.256;2022-11-04T04:21:00;2.65;;;1.05;;
434;SDS011;204;48.942;9.256;2022-11-04T04:23:30;2.28;;;1.35;;
434;SDS011;204;48.942;9.256;2022-11-04T04:26:17;1.25;;;0.90;;
434;SDS011;204;48.942;9.256;2022-11-04T04:29:04;4.75;;;1.30;;
434;SDS011;204;48.942;9.256;2022-11-04T04:31:32;2.20;;;1.10;;
434;SDS011;204;48.942;9.256;2022-11-04T04:34:26;3.03;;;1.27;;
434;SDS011;204;48.942;9.256;2022-11-04T04:42:31;1.48;;;0.95;;
434;SDS011;204;48.942;9.256;2022-11-04T04:45:26;2.35;;;1.48;;
434;SDS011;204;48.942;9.256;2022-11-04T04:47:57;2.55;;;1.20;;
434;SDS011;204;48.942;9.256;2022-11-04T04:50:24;1.10;;;1.00;;
434;SDS011;204;48.942;9.256;2022-11-04T04:52:52;2.00;;;1.63;;
434;SDS011;204;48.942;9.256;2022-11-04T04:55:20;4.28;;;1.77;;
434;SDS011;204;48.942;9.256;2022-11-04T04:57:46;2.33;;;1.43;;
434;SDS011;204;48.942;9.256;2022-11-04T05:00:13;2.90;;;1.43;;
434;SDS011;204;48.942;9.256;2022-11-04T05:02:41;2.83;;;1.30;;
434;SDS011;204;48.942;9.256;2022-11-04T05:05:07;2.07;;;1.67;;
434;SDS011;204;48.942;9.256;2022-11-04T05:07:32;2.63;;;1.40;;
434;SDS011;204;48.942;9.256;2022-11-04T05:09:58;2.03;;;1.43;;
434;SDS011;204;48.942;9.256;2022-11-04T05:12:24;2.57;;;1.77;;
434;SDS011;204;48.942;9.256;2022-11-04T05:14:49;2.60;;;1.93;;
434;SDS011;204;48.942;9.256;2022-11-04T05:17:15;4.87;;;2.53;;
434;SDS011;204;48.942;9.256;2022-11-04T05:19:41;5.15;;;3.08;;
434;SDS011;204;48.942;9.256;2022-11-04T05:22:07;4.70;;;2.33;;
434;SDS011;204;48.942;9.256;2022-11-04T05:24:32;3.83;;;2.63;;
434;SDS011;204;48.942;9.256;2022-11-04T05:26:58;3.67;;;2.80;;
434;SDS011;204;48.942;9.256;2022-11-04T05:29:23;7.07;;;2.57;;
434;SDS011;204;48.942;9.256;2022-11-04T05:31:49;6.30;;;2.60;;
434;SDS011;204;48.942;9.256;2022-11-04T05:34:14;5.60;;;2.70;;
434;SDS011;204;48.942;9.256;2022-11-04T05:36:40;2.53;;;2.33;;
434;SDS011;204;48.942;9.256;2022-11-04T05:39:06;4.03;;;2.53;;
434;SDS011;204;48.942;9.256;2022-11-04T05:41:34;3.50;;;2.90;;
434;SDS011;204;48.942;9.256;2022-11-04T05:44:00;4.80;;;2.57;;
434;SDS011;204;48.942;9.256;2022-11-04T05:46:27;7.07;;;3.88;;
434;SDS011;204;48.942;9.256;2022-11-04T05:48:53;5.28;;;3.75;;
434;SDS011;204;48.942;9.256;2022-11-04T05:51:21;4.53;;;3.42;;
434;SDS011;204;48.942;9.256;2022-11-04T05:53:48;7.20;;;3.00;;
434;SDS011;204;48.942;9.256;2022-11-04T05:56:14;4.40;;;3.23;;
434;SDS011;204;48.942;9.256;2022-11-04T05:58:40;3.20;;;2.70;;
434;SDS011;204;48.942;9.256;2022-11-04T06:01:21;4.43;;;3.13;;
434;SDS011;204;48.942;9.256;2022-11-04T06:03:57;7.45;;;4.85;;
434;SDS011;204;48.942;9.256;2022-11-04T06:06:24;3.95;;;3.75;;
434;SDS011;204;48.942;9.256;2022-11-04T06:08:52;4.53;;;4.10;;
434;SDS011;204;48.942;9.256;2022-11-04T06:11:18;5.30;;;5.03;;
434;SDS011;204;48.942;9.256;2022-11-04T06:13:45;5.78;;;4.53;;
434;SDS011;204;48.942;9.256;2022-11-04T06:16:10;7.33;;;4.57;;
434;SDS011;204;48.942;9.256;2022-11-04T06:18:36;6.80;;;4.00;;
434;SDS011;204;48.942;9.256;2022-11-04T06:23:42;3.60;;;3.40;;
434;SDS011;204;48.942;9.256;2022-11-04T06:26:09;6.50;;;4.22;;
434;SDS011;204;48.942;9.256;2022-11-04T06:28:36;4.53;;;3.95;;
434;SDS011;204;48.942;9.256;2022-11-04T06:31:03;8.32;;;5.18;;
434;SDS011;204;48.942;9.256;2022-11-04T06:33:31;9.35;;;6.38;;
434;SDS011;204;48.942;9.256;2022-11-04T06:35:57;6.15;;;5.75;;
434;SDS011;204;48.942;9.256;2022-11-04T06:38:23;19.27;;;8.50;;
434;SDS011;204;48.942;9.256;2022-11-04T06:40:49;8.93;;;8.07;;
434;SDS011;204;48.942;9.256;2022-11-04T06:43:14;24.23;;;17.10;;
434;SDS011;204;48.942;9.256;2022-11-04T06:45:40;15.10;;;11.57;;
434;SDS011;204;48.942;9.256;2022-11-04T06:48:06;13.20;;;9.00;;
434;SDS011;204;48.942;9.256;2022-11-04T06:50:31;6.67;;;6.27;;
434;SDS011;204;48.942;9.256;2022-11-04T06:52:57;5.87;;;5.50;;
434;SDS011;204;48.942;9.256;2022-11-04T06:55:23;4.70;;;3.80;;
434;SDS011;204;48.942;9.256;2022-11-04T06:57:49;7.73;;;3.60;;
434;SDS011;204;48.942;9.256;2022-11-04T07:00:15;3.07;;;2.90;;
434;SDS011;204;48.942;9.256;2022-11-04T07:02:40;12.23;;;3.43;;
434;SDS011;204;48.942;9.256;2022-11-04T07:05:06;2.87;;;2.50;;
434;SDS011;204;48.942;9.256;2022-11-04T07:07:32;4.80;;;2.58;;
434;SDS011;204;48.942;9.256;2022-11-04T07:09:58;2.50;;;2.30;;
434;SDS011;204;48.942;9.256;2022-11-04T07:12:23;7.10;;;2.50;;
434;SDS011;204;48.942;9.256;2022-11-04T07:14:52;3.83;;;1.73;;
434;SDS011;204;48.942;9.256;2022-11-04T07:17:20;2.80;;;2.20;;
434;SDS011;204;48.942;9.256;2022-11-04T07:19:45;2.57;;;2.10;;
434;SDS011;204;48.942;9.256;2022-11-04T07:22:11;2.93;;;2.23;;
434;SDS011;204;48.942;9.256;2022-11-04T07:24:36;6.23;;;2.80;;
434;SDS011;204;48.942;9.256;2022-11-04T07:27:02;3.63;;;2.00;;
434;SDS011;204;48.942;9.256;2022-11-04T07:29:28;2.80;;;2.30;;
434;SDS011;204;48.942;9.256;2022-11-04T07:31:53;2.67;;;2.27;;
434;SDS011;204;48.942;9.256;2022-11-04T07:34:19;2.60;;;1.67;;
434;SDS011;204;48.942;9.256;2022-11-04T07:36:44;3.50;;;2.40;;
434;SDS011;204;48.942;9.256;2022-11-04T07:39:10;4.20;;;2.37;;
434;SDS011;204;48.942;9.256;2022-11-04T07:41:35;2.70;;;2.60;;
434;SDS011;204;48.942;9.256;2022-11-04T07:44:01;3.93;;;2.70;;
434;SDS011;204;48.942;9.256;2022-11-04T07:46:29;5.93;;;3.00;;
434;SDS011;204;48.942;9.256;2022-11-04T07:48:58;3.70;;;3.17;;
434;SDS011;204;48.942;9.256;2022-11-04T07:51:24;3.83;;;2.70;;
434;SDS011;204;48.942;9.256;2022-11-04T07:53:50;2.80;;;2.60;;
434;SDS011;204;48.942;9.256;2022-11-04T07:56:16;4.53;;;3.30;;
434;SDS011;204;48.942;9.256;2022-11-04T07:58:43;2.67;;;2.40;;
434;SDS011;204;48.942;9.256;2022-11-04T08:01:11;11.48;;;4.97;;
434;SDS011;204;48.942;9.256;2022-11-04T08:03:38;4.78;;;3.85;;
434;SDS011;204;48.942;9.256;2022-11-04T08:06:05;4.60;;;3.63;;
434;SDS011;204;48.942;9.256;2022-11-04T08:08:33;3.13;;;2.92;;
434;SDS011;204;48.942;9.256;2022-11-04T08:11:00;5.97;;;2.30;;
434;SDS011;204;48.942;9.256;2022-11-04T08:13:29;5.75;;;5.00;;
434;SDS011;204;48.942;9.256;2022-11-04T08:15:56;6.68;;;4.70;;
434;SDS011;204;48.942;9.256;2022-11-04T08:18:24;9.57;;;5.30;;
434;SDS011;204;48.942;9.256;2022-11-04T08:20:51;5.20;;;4.40;;
434;SDS011;204;48.942;9.256;2022-11-04T08:23:18;6.35;;;4.72;;
434;SDS011;204;48.942;9.256;2022-11-04T08:25:44;6.32;;;4.72;;
434;SDS011;204;48.942;9.256;2022-11-04T08:28:11;4.45;;;3.33;;
434;SDS011;204;48.942;9.256;2022-11-04T08:30:41;3.95;;;2.90;;
434;SDS011;204;48.942;9.256;2022-11-04T08:33:20;5.68;;;4.40;;
434;SDS011;204;48.942;9.256;2022-11-04T08:35:47;4.57;;;4.10;;
434;SDS011;204;48.942;9.256;2022-11-04T08:38:13;4.60;;;3.00;;
434;SDS011;204;48.942;9.256;2022-11-04T08:40:38;5.73;;;4.00;;
434;SDS011;204;48.942;9.256;2022-11-04T08:43:04;5.00;;;3.70;;
434;SDS011;204;48.942;9.256;2022-11-04T08:45:29;7.00;;;4.30;;
434;SDS011;204;48.942;9.256;2022-11-04T08:47:55;3.70;;;2.80;;
434;SDS011;204;48.942;9.256;2022-11-04T08:50:20;14.47;;;2.83;;
434;SDS011;204;48.942;9.256;2022-11-04T08:52:51;12.18;;;6.47;;
434;SDS011;204;48.942;9.256;2022-11-04T08:55:17;13.05;;;7.47;;
434;SDS011;204;48.942;9.256;2022-11-04T08:57:43;14.33;;;7.30;;
434;SDS011;204;48.942;9.256;2022-11-04T09:00:09;19.30;;;7.60;;
434;SDS011;204;48.942;9.256;2022-11-04T09:02:35;15.40;;;8.30;;
434;SDS011;204;48.942;9.256;2022-11-04T09:05:00;10.33;;;4.87;;
434;SDS011;204;48.942;9.256;2022-11-04T09:07:27;17.35;;;6.88;;
434;SDS011;204;48.942;9.256;2022-11-04T09:09:53;12.93;;;6.40;;
434;SDS011;204;48.942;9.256;2022-11-04T09:12:18;7.70;;;4.43;;
434;SDS011;204;48.942;9.256;2022-11-04T09:14:44;6.30;;;3.40;;
434;SDS011;204;48.942;9.256;2022-11-04T09:17:09;5.40;;;3.70;;
434;SDS011;204;48.942;9.256;2022-11-04T09:19:35;5.53;;;3.27;;
434;SDS011;204;48.942;9.256;2022-11-04T09:22:01;3.70;;;2.47;;
434;SDS011;204;48.942;9.256;2022-11-04T09:24:26;5.83;;;3.43;;
434;SDS011;204;48.942;9.256;2022-11-04T09:26:52;5.37;;;3.47;;
434;SDS011;204;48.942;9.256;2022-11-04T09:29:18;3.33;;;3.13;;
434;SDS011;204;48.942;9.256;2022-11-04T09:31:43;6.47;;;4.63;;
434;SDS011;204;48.942;9.256;2022-11-04T09:34:09;10.97;;;6.73;;
434;SDS011;204;48.942;9.256;2022-11-04T09:36:34;11.77;;;7.30;;
434;SDS011;204;48.942;9.256;2022-11-04T09:39:00;7.83;;;4.40;;
434;SDS011;204;48.942;9.256;2022-11-04T09:46:44;10.00;;;4.82;;
434;SDS011;204;48.942;9.256;2022-11-04T09:49:13;13.95;;;5.45;;
434;SDS011;204;48.942;9.256;2022-11-04T09:51:41;6.55;;;2.90;;
434;SDS011;204;48.942;9.256;2022-11-04T09:54:12;2.95;;;1.90;;
434;SDS011;204;48.942;9.256;2022-11-04T09:56:48;10.25;;;2.20;;
434;SDS011;204;48.942;9.256;2022-11-04T09:59:19;4.97;;;2.15;;
434;SDS011;204;48.942;9.256;2022-11-04T10:10:55;5.88;;;2.17;;
434;SDS011;204;48.942;9.256;2022-11-04T10:19:04;8.20;;;4.57;;
434;SDS011;204;48.942;9.256;2022-11-04T10:24:47;7.07;;;3.92;;
434;SDS011;204;48.942;9.256;2022-11-04T10:27:43;15.45;;;6.10;;
434;SDS011;204;48.942;9.256;2022-11-04T10:30:15;15.63;;;4.75;;
434;SDS011;204;48.942;9.256;2022-11-04T10:32:54;4.90;;;2.72;;
434;SDS011;204;48.942;9.256;2022-11-04T10:35:28;4.32;;;2.30;;
434;SDS011;204;48.942;9.256;2022-11-04T10:38:14;4.85;;;2.10;;
434;SDS011;204;48.942;9.256;2022-11-04T10:40:41;2.50;;;1.90;;
434;SDS011;204;48.942;9.256;2022-11-04T10:43:12;5.97;;;2.63;;
434;SDS011;204;48.942;9.256;2022-11-04T10:48:38;7.38;;;1.90;;
434;SDS011;204;48.942;9.256;2022-11-04T10:51:21;3.25;;;1.73;;
434;SDS011;204;48.942;9.256;2022-11-04T10:53:57;2.72;;;1.83;;
434;SDS011;204;48.942;9.256;2022-11-04T10:56:31;3.67;;;2.70;;
434;SDS011;204;48.942;9.256;2022-11-04T10:59:15;2.65;;;1.13;;
434;SDS011;204;48.942;9.256;2022-11-04T11:01:54;2.90;;;1.70;;
434;SDS011;204;48.942;9.256;2022-11-04T11:04:26;2.90;;;1.45;;
434;SDS011;204;48.942;9.256;2022-11-04T11:06:52;5.50;;;2.08;;
434;SDS011;204;48.942;9.256;2022-11-04T11:09:26;17.30;;;3.38;;
434;SDS011;204;48.942;9.256;2022-11-04T11:12:00;7.40;;;2.42;;
434;SDS011;204;48.942;9.256;2022-11-04T11:14:42;22.73;;;2.60;;
434;SDS011;204;48.942;9.256;2022-11-04T11:17:18;6.28;;;2.15;;
434;SDS011;204;48.942;9.256;2022-11-04T11:27:37;3.50;;;1.50;;
434;SDS011;204;48.942;9.256;2022-11-04T11:30:03;5.23;;;1.50;;
434;SDS011;204;48.942;9.256;2022-11-04T11:32:33;1.35;;;1.33;;
434;SDS011;204;48.942;9.256;2022-11-04T11:34:59;7.55;;;1.90;;
434;SDS011;204;48.942;9.256;2022-11-04T11:37:26;2.80;;;1.67;;
434;SDS011;204;48.942;9.256;2022-11-04T11:39:56;2.00;;;1.50;;
434;SDS011;204;48.942;9.256;2022-11-04T11:42:22;3.40;;;1.07;;
434;SDS011;204;48.942;9.256;2022-11-04T11:44:49;2.97;;;1.17;;
434;SDS011;204;48.942;9.256;2022-11-04T11:47:35;5.05;;;1.50;;
434;SDS011;204;48.942;9.256;2022-11-04T11:50:04;2.92;;;1.30;;
434;SDS011;204;48.942;9.256;2022-11-04T11:52:41;4.32;;;1.70;;
434;SDS011;204;48.942;9.256;2022-11-04T12:00:45;2.28;;;1.13;;
434;SDS011;204;48.942;9.256;2022-11-04T12:03:19;1.85;;;1.15;;
434;SDS011;204;48.942;9.256;2022-11-04T12:13:50;5.40;;;1.30;;
434;SDS011;204;48.942;9.256;2022-11-04T12:16:32;5.20;;;1.08;;
434;SDS011;204;48.942;9.256;2022-11-04T12:21:44;5.90;;;1.45;;
434;SDS011;204;48.942;9.256;2022-11-04T12:30:04;2.35;;;2.20;;
434;SDS011;204;48.942;9.256;2022-11-04T12:32:39;3.25;;;1.30;;
434;SDS011;204;48.942;9.256;2022-11-04T12:43:39;2.55;;;1.23;;
434;SDS011;204;48.942;9.256;2022-11-04T12:51:11;4.75;;;2.00;;
434;SDS011;204;48.942;9.256;2022-11-04T12:56:18;3.93;;;1.67;;
434;SDS011;204;48.942;9.256;2022-11-04T13:04:49;2.00;;;1.20;;
434;SDS011;204;48.942;9.256;2022-11-04T13:07:15;3.85;;;2.10;;
434;SDS011;204;48.942;9.256;2022-11-04T13:09:53;4.20;;;1.33;;
434;SDS011;204;48.942;9.256;2022-11-04T13:12:22;3.42;;;1.83;;
434;SDS011;204;48.942;9.256;2022-11-04T13:15:00;5.10;;;4.13;;
434;SDS011;204;48.942;9.256;2022-11-04T13:17:32;3.28;;;1.90;;
434;SDS011;204;48.942;9.256;2022-11-04T13:20:12;7.57;;;3.95;;
434;SDS011;204;48.942;9.256;2022-11-04T13:22:46;4.30;;;1.70;;
434;SDS011;204;48.942;9.256;2022-11-04T13:28:03;4.72;;;2.42;;
434;SDS011;204;48.942;9.256;2022-11-04T13:38:49;4.72;;;1.55;;
434;SDS011;204;48.942;9.256;2022-11-04T13:44:04;3.55;;;1.55;;
434;SDS011;204;48.942;9.256;2022-11-04T13:46:48;2.70;;;1.75;;
434;SDS011;204;48.942;9.256;2022-11-04T13:51:46;7.10;;;2.15;;
434;SDS011;204;48.942;9.256;2022-11-04T13:57:29;3.72;;;1.23;;
434;SDS011;204;48.942;9.256;2022-11-04T14:10:37;4.25;;;1.10;;
434;SDS011;204;48.942;9.256;2022-11-04T14:16:02;7.57;;;1.95;;
434;SDS011;204;48.942;9.256;2022-11-04T14:18:38;5.30;;;1.75;;
434;SDS011;204;48.942;9.256;2022-11-04T14:23:39;1.67;;;1.30;;
434;SDS011;204;48.942;9.256;2022-11-04T14:26:07;2.92;;;2.00;;
434;SDS011;204;48.942;9.256;2022-11-04T14:28:35;2.67;;;1.90;;
434;SDS011;204;48.942;9.256;2022-11-04T14:31:02;4.30;;;1.75;;
434;SDS011;204;48.942;9.256;2022-11-04T14:44:17;2.50;;;1.05;;
434;SDS011;204;48.942;9.256;2022-11-04T14:46:46;3.63;;;1.52;;
434;SDS011;204;48.942;9.256;2022-11-04T14:49:31;4.38;;;1.25;;
434;SDS011;204;48.942;9.256;2022-11-04T14:52:05;3.55;;;1.10;;
434;SDS011;204;48.942;9.256;2022-11-04T14:54:40;2.85;;;1.20;;
434;SDS011;204;48.942;9.256;2022-11-04T14:57:28;5.47;;;1.70;;
434;SDS011;204;48.942;9.256;2022-11-04T15:00:16;3.08;;;0.98;;
434;SDS011;204;48.942;9.256;2022-11-04T15:02:44;4.82;;;1.42;;
434;SDS011;204;48.942;9.256;2022-11-04T15:05:20;2.30;;;1.03;;
434;SDS011;204;48.942;9.256;2022-11-04T15:07:48;2.15;;;0.82;;
434;SDS011;204;48.942;9.256;2022-11-04T15:10:24;2.20;;;1.40;;
434;SDS011;204;48.942;9.256;2022-11-04T15:12:52;2.50;;;1.55;;
434;SDS011;204;48.942;9.256;2022-11-04T15:15:37;2.85;;;0.80;;
434;SDS011;204;48.942;9.256;2022-11-04T15:20:31;4.60;;;1.27;;
434;SDS011;204;48.942;9.256;2022-11-04T15:22:59;2.15;;;0.95;;
434;SDS011;204;48.942;9.256;2022-11-04T15:25:26;2.67;;;1.48;;
434;SDS011;204;48.942;9.256;2022-11-04T15:27:53;1.47;;;0.90;;
434;SDS011;204;48.942;9.256;2022-11-04T15:30:20;1.52;;;1.00;;
434;SDS011;204;48.942;9.256;2022-11-04T15:32:53;1.65;;;0.80;;
434;SDS011;204;48.942;9.256;2022-11-04T15:35:20;2.97;;;1.08;;
434;SDS011;204;48.942;9.256;2022-11-04T15:37:46;2.40;;;1.17;;
434;SDS011;204;48.942;9.256;2022-11-04T15:40:13;2.75;;;1.33;;
434;SDS011;204;48.942;9.256;2022-11-04T15:42:41;1.40;;;1.02;;
434;SDS011;204;48.942;9.256;2022-11-04T15:45:47;2.35;;;1.05;;
434;SDS011;204;48.942;9.256;2022-11-04T15:48:31;1.70;;;1.10;;
434;SDS011;204;48.942;9.256;2022-11-04T15:53:46;1.65;;;0.90;;
434;SDS011;204;48.942;9.256;2022-11-04T15:56:26;0.88;;;0.70;;
434;SDS011;204;48.942;9.256;2022-11-04T15:59:05;1.10;;;0.90;;
434;SDS011;204;48.942;9.256;2022-11-04T16:01:34;1.45;;;0.70;;
434;SDS011;204;48.942;9.256;2022-11-04T16:04:12;1.40;;;1.05;;
434;SDS011;204;48.942;9.256;2022-11-04T16:06:40;1.45;;;0.75;;
434;SDS011;204;48.942;9.256;2022-11-04T16:11:36;2.85;;;1.33;;
434;SDS011;204;48.942;9.256;2022-11-04T16:14:20;2.63;;;1.48;;
434;SDS011;204;48.942;9.256;2022-11-04T16:16:48;2.25;;;2.08;;
434;SDS011;204;48.942;9.256;2022-11-04T16:19:19;6.70;;;5.75;;
434;SDS011;204;48.942;9.256;2022-11-04T16:21:48;20.90;;;18.70;;
434;SDS011;204;48.942;9.256;2022-11-04T16:24:26;2.60;;;1.80;;
434;SDS011;204;48.942;9.256;2022-11-04T16:26:55;1.70;;;1.42;;
434;SDS011;204;48.942;9.256;2022-11-04T16:34:45;3.15;;;1.25;;
434;SDS011;204;48.942;9.256;2022-11-04T16:37:12;1.50;;;1.30;;
434;SDS011;204;48.942;9.256;2022-11-04T16:39:38;2.77;;;1.30;;
434;SDS011;204;48.942;9.256;2022-11-04T16:42:04;1.60;;;1.20;;
434;SDS011;204;48.942;9.256;2022-11-04T16:44:31;4.20;;;1.73;;
434;SDS011;204;48.942;9.256;2022-11-04T16:46:57;3.33;;;1.25;;
434;SDS011;204;48.942;9.256;2022-11-04T16:49:24;1.83;;;1.20;;
434;SDS011;204;48.942;9.256;2022-11-04T16:51:53;2.50;;;1.20;;
434;SDS011;204;48.942;9.256;2022-11-04T16:54:21;2.17;;;1.50;;
434;SDS011;204;48.942;9.256;2022-11-04T16:56:47;2.35;;;1.88;;
434;SDS011;204;48.942;9.256;2022-11-04T16:59:13;3.63;;;2.10;;
434;SDS011;204;48.942;9.256;2022-11-04T17:01:38;3.63;;;2.13;;
434;SDS011;204;48.942;9.256;2022-11-04T17:04:05;4.90;;;2.80;;
434;SDS011;204;48.942;9.256;2022-11-04T17:06:31;5.53;;;2.63;;
434;SDS011;204;48.942;9.256;2022-11-04T17:08:57;5.00;;;3.45;;
434;SDS011;204;48.942;9.256;2022-11-04T17:11:23;4.77;;;2.17;;
434;SDS011;204;48.942;9.256;2022-11-04T17:13:48;3.03;;;2.20;;
434;SDS011;204;48.942;9.256;2022-11-04T17:16:14;5.60;;;2.63;;
434;SDS011;204;48.942;9.256;2022-11-04T17:18:39;4.97;;;3.53;;
434;SDS011;204;48.942;9.256;2022-11-04T17:21:06;7.43;;;5.77;;
434;SDS011;204;48.942;9.256;2022-11-04T17:23:33;10.43;;;8.07;;
434;SDS011;204;48.942;9.256;2022-11-04T17:25:58;7.60;;;5.70;;
434;SDS011;204;48.942;9.256;2022-11-04T17:28:24;8.23;;;6.03;;
434;SDS011;204;48.942;9.256;2022-11-04T17:30:51;6.50;;;4.55;;
434;SDS011;204;48.942;9.256;2022-11-04T17:33:17;4.40;;;4.07;;
434;SDS011;204;48.942;9.256;2022-11-04T17:35:44;7.30;;;6.93;;
434;SDS011;204;48.942;9.256;2022-11-04T17:38:12;11.27;;;7.43;;
434;SDS011;204;48.942;9.256;2022-11-04T17:40:39;6.30;;;5.47;;
434;SDS011;204;48.942;9.256;2022-11-04T17:43:24;7.63;;;6.00;;
434;SDS011;204;48.942;9.256;2022-11-04T17:46:08;5.43;;;5.13;;
434;SDS011;204;48.942;9.256;2022-11-04T17:48:53;5.50;;;5.20;;
434;SDS011;204;48.942;9.256;2022-11-04T17:51:19;5.90;;;3.60;;
434;SDS011;204;48.942;9.256;2022-11-04T17:53:45;4.17;;;3.20;;
434;SDS011;204;48.942;9.256;2022-11-04T17:56:14;6.75;;;4.22;;
434;SDS011;204;48.942;9.256;2022-11-04T17:58:41;3.40;;;3.22;;
434;SDS011;204;48.942;9.256;2022-11-04T18:01:07;5.70;;;3.83;;
434;SDS011;204;48.942;9.256;2022-11-04T18:03:34;3.90;;;3.70;;
434;SDS011;204;48.942;9.256;2022-11-04T18:06:00;9.18;;;3.80;;
434;SDS011;204;48.942;9.256;2022-11-04T18:08:27;6.30;;;3.45;;
434;SDS011;204;48.942;9.256;2022-11-04T18:10:56;6.30;;;4.53;;
434;SDS011;204;48.942;9.256;2022-11-04T18:13:22;7.72;;;4.38;;
434;SDS011;204;48.942;9.256;2022-11-04T18:15:48;5.47;;;4.23;;
434;SDS011;204;48.942;9.256;2022-11-04T18:18:13;7.43;;;4.00;;
434;SDS011;204;48.942;9.256;2022-11-04T18:20:39;6.60;;;5.10;;
434;SDS011;204;48.942;9.256;2022-11-04T18:23:05;7.30;;;5.07;;
434;SDS011;204;48.942;9.256;2022-11-04T18:25:30;6.47;;;5.70;;
434;SDS011;204;48.942;9.256;2022-11-04T18:27:56;6.40;;;6.00;;
434;SDS011;204;48.942;9.256;2022-11-04T18:30:21;5.57;;;5.30;;
434;SDS011;204;48.942;9.256;2022-11-04T18:32:47;7.07;;;5.30;;
434;SDS011;204;48.942;9.256;2022-11-04T18:35:13;41.10;;;33.50;;
434;SDS011;204;48.942;9.256;2022-11-04T18:37:38;39.53;;;32.13;;
434;SDS011;204;48.942;9.256;2022-11-04T18:40:04;20.90;;;18.10;;
434;SDS011;204;48.942;9.256;2022-11-04T18:42:30;7.95;;;7.40;;
434;SDS011;204;48.942;9.256;2022-11-04T18:44:56;8.43;;;8.00;;
434;SDS011;204;48.942;9.256;2022-11-04T18:47:21;11.20;;;7.17;;
434;SDS011;204;48.942;9.256;2022-11-04T18:49:47;7.37;;;7.00;;
434;SDS011;204;48.942;9.256;2022-11-04T18:52:13;7.10;;;6.53;;
434;SDS011;204;48.942;9.256;2022-11-04T18:54:41;7.73;;;7.27;;
434;SDS011;204;48.942;9.256;2022-11-04T18:57:07;7.85;;;7.47;;